Time;durP1;ratioP1;P1;durP2;ratioP2;P2;SDS_P1;SDS_P2;PMS_P1;PMS_P2;Temp;Humidity;BMP_temperature;BMP_pressure;BME280_temperature;BME280_humidity;BME280_pressure;Samples;Min_cycle;Max_cycle;Signal;HPM_P1;HPM_P2
2022/10/13 00:02:14;;;;;;;9.82;6.97;;;17.00;79.10;;;;;;10845077;32;20050;-73
2022/10/13 00:08:20;;;;;;;8.93;6.55;;;16.90;79.00;;;;;;10857941;32;20039;-73
2022/10/13 00:14:24;;;;;;;12.13;7.75;;;16.80;79.10;;;;;;10861854;32;20031;-73
2022/10/13 00:20:26;;;;;;;12.65;8.07;;;16.80;79.30;;;;;;10864114;27;20436;-73
2022/10/13 00:26:28;;;;;;;14.02;10.27;;;16.80;79.30;;;;;;10857564;32;20070;-73
2022/10/13 00:32:30;;;;;;;10.93;6.95;;;16.80;79.10;;;;;;10857509;32;20383;-73
2022/10/13 00:38:32;;;;;;;11.70;7.35;;;16.70;79.30;;;;;;10857310;32;20054;-73
2022/10/13 00:45:01;;;;;;;11.35;9.10;;;16.70;79.40;;;;;;10845549;32;20031;-73
2022/10/13 00:51:03;;;;;;;9.83;7.47;;;16.70;79.40;;;;;;10861205;32;20070;-73
2022/10/13 00:57:07;;;;;;;7.93;6.05;;;16.70;79.40;;;;;;10852313;32;20019;-73
2022/10/13 01:03:10;;;;;;;8.77;6.20;;;16.60;79.40;;;;;;10866786;32;20023;-72
2022/10/13 01:09:12;;;;;;;18.62;8.32;;;16.60;79.40;;;;;;10863235;32;20062;-73
2022/10/13 01:15:30;;;;;;;11.80;8.68;;;16.50;79.40;;;;;;10863156;32;20023;-73
2022/10/13 01:21:47;;;;;;;6.87;4.75;;;16.50;79.50;;;;;;10865903;32;20031;-73
2022/10/13 01:27:55;;;;;;;8.98;6.32;;;16.40;79.50;;;;;;10853557;32;20403;-73
2022/10/13 01:34:38;;;;;;;6.80;4.82;;;16.40;79.60;;;;;;10862519;32;20392;-73
2022/10/13 01:41:30;;;;;;;9.57;7.07;;;16.30;79.70;;;;;;10785645;33;20040;-72
2022/10/13 01:47:34;;;;;;;7.90;5.37;;;16.20;79.70;;;;;;10788331;32;20052;-73
2022/10/13 01:53:36;;;;;;;9.38;5.78;;;16.20;79.90;;;;;;10788108;33;20070;-73
2022/10/13 01:59:39;;;;;;;7.18;5.57;;;16.20;79.90;;;;;;10787980;33;20029;-73
2022/10/13 02:05:48;;;;;;;9.65;6.78;;;16.10;79.90;;;;;;10782989;33;20051;-72
2022/10/13 02:11:58;;;;;;;9.57;6.87;;;16.10;79.80;;;;;;10788801;33;20059;-72
2022/10/13 02:18:03;;;;;;;8.13;5.57;;;16.00;79.90;;;;;;10858971;32;20031;-73
2022/10/13 02:24:06;;;;;;;5.90;4.28;;;15.90;80.20;;;;;;10865237;32;20457;-73
2022/10/13 02:30:09;;;;;;;9.63;7.65;;;16.00;80.10;;;;;;10851902;32;20047;-72
2022/10/13 02:36:11;;;;;;;8.93;5.62;;;16.00;80.00;;;;;;10860703;32;20035;-73
2022/10/13 02:42:13;;;;;;;7.78;5.95;;;16.00;80.00;;;;;;10864757;32;20063;-72
2022/10/13 02:48:15;;;;;;;10.65;6.55;;;15.90;80.10;;;;;;10863851;32;20039;-72
2022/10/13 02:54:17;;;;;;;9.30;7.32;;;15.90;80.10;;;;;;10864398;32;20016;-72
2022/10/13 03:00:20;;;;;;;9.68;7.30;;;15.80;80.20;;;;;;10861260;32;20028;-73
2022/10/13 03:06:22;;;;;;;11.77;6.97;;;15.80;80.10;;;;;;10864012;32;20400;-73
2022/10/13 03:12:24;;;;;;;7.93;6.37;;;15.90;79.90;;;;;;10850695;32;20074;-72
2022/10/13 03:18:26;;;;;;;12.48;8.07;;;15.80;79.90;;;;;;10863784;32;20392;-72
2022/10/13 03:24:28;;;;;;;12.30;6.65;;;15.70;80.10;;;;;;10863197;32;20065;-72
2022/10/13 03:30:31;;;;;;;11.18;7.05;;;15.60;80.20;;;;;;10862693;32;20359;-73
2022/10/13 03:36:32;;;;;;;7.75;5.87;;;15.60;80.50;;;;;;10863188;32;20015;-73
2022/10/13 03:42:38;;;;;;;10.93;8.45;;;15.60;80.40;;;;;;10862948;32;20051;-73
2022/10/13 03:48:40;;;;;;;11.30;7.00;;;15.60;80.40;;;;;;10862682;32;20031;-73
2022/10/13 03:54:43;;;;;;;10.15;5.68;;;15.70;80.40;;;;;;10849656;32;20083;-73
2022/10/13 04:00:46;;;;;;;8.68;6.30;;;15.60;80.40;;;;;;10862497;32;20359;-73
2022/10/13 04:06:48;;;;;;;9.88;6.47;;;15.60;80.30;;;;;;10862220;32;20036;-73
2022/10/13 04:12:50;;;;;;;9.55;6.93;;;15.60;80.30;;;;;;10858119;32;20055;-72
2022/10/13 04:18:58;;;;;;;7.50;5.03;;;15.60;80.40;;;;;;10861954;32;20028;-72
2022/10/13 04:25:25;;;;;;;11.35;7.47;;;15.60;80.40;;;;;;10858220;32;20027;-73
2022/10/13 04:31:29;;;;;;;9.80;6.55;;;15.50;80.50;;;;;;10848221;32;20020;-73
2022/10/13 04:37:31;;;;;;;6.87;4.28;;;15.40;80.70;;;;;;10859441;32;20298;-73
2022/10/13 04:43:33;;;;;;;6.75;4.75;;;15.30;80.80;;;;;;10861281;32;20051;-73
2022/10/13 04:49:36;;;;;;;9.45;6.45;;;15.30;80.80;;;;;;10844010;32;20035;-73
2022/10/13 04:55:38;;;;;;;10.00;5.45;;;15.30;80.90;;;;;;10857094;32;20070;-72
2022/10/13 05:01:41;;;;;;;6.80;4.53;;;15.20;80.90;;;;;;10861059;32;20392;-73
2022/10/13 05:08:07;;;;;;;7.68;6.15;;;15.10;81.00;;;;;;10856753;32;20027;-73
2022/10/13 05:14:10;;;;;;;10.10;6.57;;;15.20;81.10;;;;;;10860767;32;20173;-73
2022/10/13 05:20:12;;;;;;;8.43;5.87;;;15.20;81.10;;;;;;10856204;32;20032;-73
2022/10/13 05:26:16;;;;;;;8.77;6.35;;;15.10;81.20;;;;;;10856300;32;20031;-73
2022/10/13 05:32:18;;;;;;;8.73;6.35;;;15.20;81.10;;;;;;10860333;32;20034;-78
2022/10/13 05:38:20;;;;;;;7.97;5.85;;;15.10;81.10;;;;;;10856509;32;20070;-78
2022/10/13 05:44:25;;;;;;;8.20;6.47;;;15.10;81.10;;;;;;10826989;32;20395;-78
2022/10/13 05:50:28;;;;;;;11.57;7.62;;;15.20;81.10;;;;;;10865387;32;20054;-78
2022/10/13 05:56:36;;;;;;;10.57;7.22;;;15.20;81.00;;;;;;10861684;32;20028;-78
2022/10/13 06:02:57;;;;;;;7.68;5.97;;;15.20;81.00;;;;;;10865837;32;20111;-78
2022/10/13 06:09:00;;;;;;;9.80;6.65;;;15.20;81.10;;;;;;10916561;32;20030;-78
2022/10/13 06:15:02;;;;;;;8.88;5.20;;;15.20;81.10;;;;;;10864880;32;20055;-78
2022/10/13 06:21:04;;;;;;;7.87;5.15;;;15.30;81.10;;;;;;10865127;32;20400;-78
2022/10/13 06:27:06;;;;;;;9.43;5.20;;;15.30;81.10;;;;;;10841182;32;20439;-79
2022/10/13 06:33:08;;;;;;;7.07;5.82;;;15.30;81.10;;;;;;10827873;33;20032;-77
2022/10/13 06:39:11;;;;;;;7.75;6.10;;;15.30;81.10;;;;;;10827759;33;20020;-77
2022/10/13 06:45:13;;;;;;;6.05;3.95;;;15.30;81.10;;;;;;10859939;32;20059;-78
2022/10/13 06:51:15;;;;;;;4.32;3.35;;;15.40;81.10;;;;;;10852563;32;20015;-77
2022/10/13 06:57:18;;;;;;;6.35;4.35;;;15.50;81.10;;;;;;10850940;32;20031;-77
2022/10/13 07:03:21;;;;;;;3.42;2.78;;;15.50;81.10;;;;;;10860197;32;20032;-77
2022/10/13 07:09:24;;;;;;;14.85;6.22;;;15.70;81.00;;;;;;10863903;32;20027;-78
2022/10/13 07:15:26;;;;;;;7.53;4.82;;;15.70;81.00;;;;;;10857173;32;20061;-78
2022/10/13 07:21:29;;;;;;;5.85;4.07;;;15.80;80.90;;;;;;10863515;32;20031;-78
2022/10/13 07:27:31;;;;;;;5.95;4.20;;;15.90;80.70;;;;;;10863292;32;20027;-78
2022/10/13 07:33:36;;;;;;;5.20;3.35;;;16.00;80.60;;;;;;10863254;32;20036;-78
2022/10/13 07:39:42;;;;;;;5.62;4.25;;;16.10;80.50;;;;;;10850407;32;20054;-78
2022/10/13 07:45:45;;;;;;;5.87;4.10;;;16.20;80.30;;;;;;10862764;32;20027;-77
2022/10/13 07:51:47;;;;;;;7.97;4.60;;;16.30;80.00;;;;;;10862374;32;20336;-78
2022/10/13 07:57:52;;;;;;;17.50;5.07;;;16.40;79.80;;;;;;10862425;32;20047;-77
2022/10/13 08:03:55;;;;;;;8.48;4.60;;;16.50;79.60;;;;;;10861789;32;20057;-79
2022/10/13 08:09:57;;;;;;;5.12;3.40;;;16.70;79.50;;;;;;10862076;32;20103;-79
2022/10/13 08:16:01;;;;;;;12.73;7.62;;;16.70;79.40;;;;;;10862009;32;20115;-78
2022/10/13 08:22:03;;;;;;;8.40;4.22;;;16.80;79.10;;;;;;10405799;27;14461418;-79
2022/10/13 08:28:23;;;;;;;9.68;6.32;;;16.90;79.00;;;;;;10785406;33;20446;-73
2022/10/13 08:34:25;;;;;;;7.60;4.70;;;17.10;79.00;;;;;;10780552;33;20498;-73
2022/10/13 08:40:39;;;;;;;8.50;5.87;;;17.20;78.80;;;;;;10780970;33;20058;-72
2022/10/13 08:47:23;;;;;;;6.62;3.80;;;17.30;78.90;;;;;;10753323;33;20059;-72
2022/10/13 08:53:33;;;;;;;9.38;5.32;;;17.40;78.40;;;;;;10672522;33;20191;-77
2022/10/13 08:59:41;;;;;;;9.27;5.62;;;17.50;78.10;;;;;;10674240;33;20068;-80
2022/10/13 09:05:57;;;;;;;10.03;5.60;;;17.70;77.80;;;;;;10673888;33;20402;-78
2022/10/13 09:11:59;;;;;;;8.00;4.62;;;17.80;77.40;;;;;;10674561;33;20044;-78
2022/10/13 09:18:11;;;;;;;12.15;5.40;;;17.90;77.80;;;;;;10675955;33;20488;-78
2022/10/13 09:24:46;;;;;;;6.85;5.50;;;17.90;77.30;;;;;;10681420;33;20025;-77
2022/10/13 09:31:00;;;;;;;7.87;5.62;;;18.10;77.00;;;;;;10827610;33;20054;-76
2022/10/13 09:37:36;;;;;;;11.52;6.62;;;18.20;77.10;;;;;;10831051;32;20027;-79
2022/10/13 09:43:47;;;;;;;8.90;7.00;;;18.30;77.50;;;;;;10817324;32;20024;-79
2022/10/13 09:50:01;;;;;;;9.90;6.15;;;18.50;76.80;;;;;;10829898;33;20403;-79
2022/10/13 09:56:29;;;;;;;8.35;5.78;;;18.60;76.00;;;;;;10829547;33;20051;-78
2022/10/13 10:02:36;;;;;;;10.20;6.15;;;18.70;76.00;;;;;;10824871;33;20046;-79
2022/10/13 10:08:51;;;;;;;6.95;5.70;;;18.90;76.10;;;;;;10829468;33;20019;-79
2022/10/13 10:14:54;;;;;;;8.07;5.72;;;19.00;75.60;;;;;;10828682;33;20020;-78
2022/10/13 10:21:05;;;;;;;8.82;6.25;;;19.20;75.00;;;;;;10815835;32;20051;-78
2022/10/13 10:27:25;;;;;;;10.38;5.50;;;19.30;74.40;;;;;;10822872;32;20316;-72
2022/10/13 10:33:53;;;;;;;11.30;7.18;;;19.50;74.00;;;;;;10823582;33;20051;-72
2022/10/13 10:40:05;;;;;;;14.63;6.87;;;19.70;74.10;;;;;;10795641;33;20063;-72
2022/10/13 10:46:22;;;;;;;13.88;5.93;;;19.90;73.80;;;;;;10823517;33;20047;-72
2022/10/13 10:52:42;;;;;;;9.93;5.37;;;20.20;72.90;;;;;;10823446;33;20032;-76
2022/10/13 10:59:01;;;;;;;9.02;5.78;;;20.40;72.30;;;;;;10823631;33;20087;-75
2022/10/13 11:05:04;;;;;;;6.28;4.28;;;20.70;70.90;;;;;;10810326;33;20024;-79
2022/10/13 11:11:34;;;;;;;9.70;5.57;;;20.90;70.90;;;;;;10824214;33;20051;-79
2022/10/13 11:17:40;;;;;;;6.65;4.53;;;21.20;69.20;;;;;;10820523;33;20427;-78
2022/10/13 11:23:49;;;;;;;11.65;5.93;;;21.40;69.00;;;;;;10826503;33;20019;-76
2022/10/13 11:29:58;;;;;;;12.30;6.68;;;21.50;67.60;;;;;;10814019;33;20036;-78
2022/10/13 11:36:32;;;;;;;10.27;5.67;;;21.50;67.70;;;;;;10826218;33;20024;-78
2022/10/13 11:42:43;;;;;;;14.73;4.93;;;21.50;67.80;;;;;;10825199;32;20108;-75
2022/10/13 11:48:53;;;;;;;7.72;4.82;;;21.60;67.00;;;;;;10825674;33;20032;-77
2022/10/13 11:55:19;;;;;;;8.18;5.43;;;21.50;66.80;;;;;;10825946;33;20019;-77
2022/10/13 12:01:22;;;;;;;15.35;5.18;;;21.60;66.80;;;;;;10825374;33;20058;-76
2022/10/13 12:07:45;;;;;;;12.45;5.07;;;21.60;66.10;;;;;;10825423;33;20043;-78
2022/10/13 12:13:47;;;;;;;8.18;4.82;;;21.70;66.00;;;;;;10825476;33;20051;-78
2022/10/13 12:19:52;;;;;;;9.60;5.05;;;21.70;66.10;;;;;;10812018;33;20316;-78
2022/10/13 12:25:57;;;;;;;8.10;5.47;;;21.70;66.00;;;;;;10824971;32;20054;-77
2022/10/13 12:32:00;;;;;;;6.95;4.53;;;21.70;66.00;;;;;;10824850;33;20096;-78
2022/10/13 12:38:06;;;;;;;9.85;5.60;;;21.60;65.90;;;;;;10823625;33;20105;-76
2022/10/13 12:44:19;;;;;;;7.70;4.73;;;21.60;65.60;;;;;;10824531;33;20043;-76
2022/10/13 12:50:26;;;;;;;10.35;5.82;;;21.50;65.60;;;;;;10824030;32;20024;-76
2022/10/13 12:56:30;;;;;;;8.35;5.07;;;21.50;65.50;;;;;;10830940;33;20051;-75
2022/10/13 13:02:33;;;;;;;12.82;7.35;;;21.60;64.90;;;;;;10830750;33;20020;-77
2022/10/13 13:08:35;;;;;;;11.05;5.78;;;21.70;65.00;;;;;;10831066;33;20058;-76
2022/10/13 13:14:41;;;;;;;6.68;4.12;;;21.60;64.80;;;;;;10830203;33;20025;-77
2022/10/13 13:20:43;;;;;;;10.02;4.82;;;21.70;65.00;;;;;;10815031;33;20044;-77
2022/10/13 13:26:45;;;;;;;8.43;4.30;;;21.80;64.90;;;;;;10793219;33;20028;-77
2022/10/13 13:32:47;;;;;;;11.98;4.85;;;21.70;65.00;;;;;;10790166;33;20023;-77
2022/10/13 13:38:49;;;;;;;8.77;5.80;;;21.80;64.40;;;;;;10779468;33;20082;-73
2022/10/13 13:44:51;;;;;;;8.50;4.40;;;21.70;63.70;;;;;;10792502;33;20071;-72
2022/10/13 13:50:54;;;;;;;6.82;4.80;;;21.80;63.90;;;;;;10787874;33;20047;-72
2022/10/13 13:56:55;;;;;;;7.75;3.72;;;21.80;64.10;;;;;;10792205;33;20056;-73
2022/10/13 14:02:59;;;;;;;6.80;3.78;;;21.80;63.70;;;;;;10786373;33;20040;-72
2022/10/13 14:09:04;;;;;;;8.13;3.67;;;21.70;63.80;;;;;;10791477;33;20051;-73
2022/10/13 14:15:06;;;;;;;7.78;4.32;;;21.60;63.80;;;;;;10787575;33;20091;-72
2022/10/13 14:21:08;;;;;;;7.47;3.95;;;21.70;63.70;;;;;;10808722;32;20035;-72
2022/10/13 14:27:11;;;;;;;6.65;3.35;;;21.70;63.80;;;;;;10828078;33;20062;-72
2022/10/13 14:33:18;;;;;;;7.95;4.43;;;21.70;63.80;;;;;;10823967;33;20423;-72
2022/10/13 14:39:20;;;;;;;8.93;4.35;;;21.70;63.70;;;;;;10810753;33;20028;-77
2022/10/13 14:45:23;;;;;;;11.60;4.22;;;21.70;63.90;;;;;;10814514;33;20036;-77
2022/10/13 14:51:25;;;;;;;7.72;4.22;;;21.60;64.00;;;;;;10827432;33;20028;-78
2022/10/13 14:57:27;;;;;;;5.37;3.62;;;21.60;63.90;;;;;;10813746;33;20055;-77
2022/10/13 15:03:30;;;;;;;13.32;7.70;;;21.50;63.90;;;;;;10825433;33;20386;-78
2022/10/13 15:09:34;;;;;;;11.85;7.75;;;21.40;64.40;;;;;;10824620;33;20062;-78
2022/10/13 15:15:45;;;;;;;8.20;5.85;;;21.20;64.90;;;;;;10814087;32;20071;-77
2022/10/13 15:21:47;;;;;;;12.07;8.68;;;21.10;65.30;;;;;;10788168;33;20071;-78
2022/10/13 15:27:50;;;;;;;12.45;9.40;;;21.00;65.50;;;;;;10815043;33;20024;-78
2022/10/13 15:33:53;;;;;;;11.68;9.18;;;20.90;65.80;;;;;;10821898;32;20032;-77
2022/10/13 15:39:55;;;;;;;11.95;8.68;;;20.80;66.20;;;;;;10821049;33;20051;-73
2022/10/13 15:46:23;;;;;;;12.80;8.23;;;20.80;66.40;;;;;;10923681;32;20026;-72
2022/10/13 15:52:25;;;;;;;13.23;9.07;;;20.70;66.70;;;;;;10823095;33;20074;-72
2022/10/13 15:58:27;;;;;;;12.40;9.10;;;20.60;67.00;;;;;;10825845;32;20065;-72
2022/10/13 16:04:29;;;;;;;16.00;11.00;;;20.50;67.20;;;;;;10832487;32;20055;-72
2022/10/13 16:10:31;;;;;;;12.77;9.15;;;20.40;67.50;;;;;;10819508;33;20055;-72
2022/10/13 16:16:33;;;;;;;14.20;9.38;;;20.30;67.70;;;;;;10823065;33;20040;-78
2022/10/13 16:22:35;;;;;;;13.23;9.00;;;20.30;67.90;;;;;;10812962;27;20036;-78
2022/10/13 16:28:37;;;;;;;12.10;8.77;;;20.10;68.10;;;;;;10815958;32;20051;-78
2022/10/13 16:34:39;;;;;;;14.32;11.43;;;20.00;68.40;;;;;;10824172;33;20050;-78
2022/10/13 16:40:42;;;;;;;16.05;11.70;;;20.00;68.60;;;;;;10824701;33;20028;-77
2022/10/13 16:46:52;;;;;;;15.70;10.57;;;19.80;68.70;;;;;;10824342;32;20035;-78
2022/10/13 16:52:54;;;;;;;15.48;11.43;;;19.80;69.00;;;;;;10819343;33;20106;-77
2022/10/13 16:58:58;;;;;;;13.62;9.80;;;19.70;69.20;;;;;;10788592;32;20118;-78
2022/10/13 17:05:00;;;;;;;14.95;9.65;;;19.70;69.40;;;;;;10786361;33;20028;-72
2022/10/13 17:11:32;;;;;;;13.65;9.27;;;19.60;69.50;;;;;;10787248;33;20334;-72
2022/10/13 17:17:34;;;;;;;12.90;9.80;;;19.50;69.90;;;;;;10786069;33;20051;-72
2022/10/13 17:23:36;;;;;;;15.27;11.55;;;19.40;70.00;;;;;;10782903;33;20068;-72
2022/10/13 17:29:39;;;;;;;15.18;11.52;;;19.30;70.40;;;;;;10782561;33;20032;-72
2022/10/13 17:35:41;;;;;;;20.85;11.85;;;19.30;70.60;;;;;;10786753;33;20059;-72
2022/10/13 17:41:43;;;;;;;15.27;10.85;;;19.20;70.70;;;;;;10792737;33;20052;-78
2022/10/13 17:48:08;;;;;;;12.25;9.45;;;19.20;70.70;;;;;;10792613;33;20037;-78
2022/10/13 17:54:11;;;;;;;18.40;12.68;;;19.20;71.00;;;;;;10808186;33;20028;-78
2022/10/13 18:00:14;;;;;;;19.75;11.18;;;19.10;71.60;;;;;;10829186;33;20340;-78
2022/10/13 18:06:18;;;;;;;14.82;11.38;;;19.00;71.80;;;;;;10815834;33;20024;-77
2022/10/13 18:12:21;;;;;;;17.65;11.15;;;19.00;71.70;;;;;;10828672;33;20055;-77
2022/10/13 18:18:23;;;;;;;17.33;11.57;;;19.00;71.70;;;;;;10828535;33;20028;-77
2022/10/13 18:24:24;;;;;;;14.35;10.10;;;18.90;71.80;;;;;;10824334;33;20019;-78
2022/10/13 18:30:27;;;;;;;16.90;12.32;;;18.90;72.00;;;;;;10827248;33;20024;-72
2022/10/13 18:36:32;;;;;;;17.12;11.75;;;18.80;72.50;;;;;;10823879;33;20036;-72
2022/10/13 18:42:34;;;;;;;14.93;11.50;;;18.80;72.60;;;;;;10822830;33;20396;-72
2022/10/13 18:48:36;;;;;;;13.82;10.43;;;18.80;72.60;;;;;;10827112;32;20071;-72
2022/10/13 18:54:38;;;;;;;14.07;10.73;;;18.80;72.90;;;;;;10812508;33;20396;-72
2022/10/13 19:00:40;;;;;;;18.60;12.88;;;18.70;73.10;;;;;;10812412;33;20321;-72
2022/10/13 19:06:43;;;;;;;17.35;13.35;;;18.70;73.70;;;;;;10812417;32;20412;-72
2022/10/13 19:12:45;;;;;;;19.65;14.27;;;18.60;74.30;;;;;;10827091;33;20055;-72
2022/10/13 19:18:48;;;;;;;20.75;14.18;;;18.50;74.50;;;;;;10813734;33;20020;-72
2022/10/13 19:24:51;;;;;;;17.00;13.68;;;18.50;74.40;;;;;;10826595;33;20028;-72
2022/10/13 19:30:54;;;;;;;21.48;16.27;;;18.40;74.50;;;;;;10826437;33;20059;-72
2022/10/13 19:36:58;;;;;;;15.48;12.63;;;18.30;74.80;;;;;;10822229;33;20050;-72
2022/10/13 19:43:02;;;;;;;18.42;13.93;;;18.30;74.90;;;;;;10813059;33;20028;-72
2022/10/13 19:49:05;;;;;;;21.75;12.55;;;18.40;75.10;;;;;;10824679;33;20054;-78
2022/10/13 19:55:09;;;;;;;17.90;13.57;;;18.30;75.10;;;;;;10825979;33;20043;-78
2022/10/13 20:01:11;;;;;;;21.75;15.82;;;18.20;75.10;;;;;;10825096;32;20050;-77
2022/10/13 20:07:13;;;;;;;15.48;11.70;;;18.20;75.30;;;;;;10788142;33;20047;-77
2022/10/13 20:13:23;;;;;;;16.37;12.37;;;18.20;75.30;;;;;;10788695;32;20028;-78
2022/10/13 20:19:46;;;;;;;22.40;15.02;;;18.10;75.40;;;;;;10788506;33;20020;-78
2022/10/13 20:25:48;;;;;;;17.92;13.88;;;18.20;75.60;;;;;;10788271;33;20020;-78
2022/10/13 20:31:50;;;;;;;23.83;16.30;;;18.10;76.00;;;;;;10784411;33;20032;-77
2022/10/13 20:37:54;;;;;;;19.85;13.62;;;18.10;76.20;;;;;;10784389;33;20345;-78
2022/10/13 20:43:58;;;;;;;20.98;17.50;;;18.00;76.40;;;;;;10787763;33;20051;-78
2022/10/13 20:50:00;;;;;;;20.23;14.13;;;18.00;76.40;;;;;;10786675;33;20043;-78
2022/10/13 20:56:05;;;;;;;20.95;16.77;;;18.00;76.50;;;;;;10787620;33;20024;-78
2022/10/13 21:02:32;;;;;;;17.70;14.10;;;17.90;77.00;;;;;;10788216;33;20040;-77
2022/10/13 21:08:34;;;;;;;15.82;13.73;;;17.80;76.90;;;;;;10787130;33;20036;-78
2022/10/13 21:14:37;;;;;;;19.40;13.65;;;17.80;76.90;;;;;;10790658;33;20052;-72
2022/10/13 21:20:48;;;;;;;23.38;15.82;;;17.80;77.20;;;;;;10793522;32;20046;-72
2022/10/13 21:27:09;;;;;;;17.87;15.75;;;17.80;77.70;;;;;;10793463;33;20431;-72
2022/10/13 21:33:11;;;;;;;28.95;16.65;;;17.80;77.70;;;;;;10793168;32;20404;-72
2022/10/13 21:39:13;;;;;;;25.05;15.98;;;17.70;77.70;;;;;;10792972;33;20076;-72
2022/10/13 21:45:15;;;;;;;23.83;14.93;;;17.70;77.90;;;;;;10792728;33;20193;-72
2022/10/13 21:51:24;;;;;;;23.25;16.05;;;17.70;77.80;;;;;;10792501;33;20024;-72
2022/10/13 21:57:26;;;;;;;18.95;13.95;;;17.70;78.10;;;;;;10788312;33;20044;-72
2022/10/13 22:03:30;;;;;;;19.33;13.52;;;17.60;78.40;;;;;;10788134;33;20025;-72
2022/10/13 22:09:35;;;;;;;17.25;13.70;;;17.70;78.40;;;;;;10791142;33;20054;-72
2022/10/13 22:15:37;;;;;;;16.33;12.88;;;17.70;78.30;;;;;;10787751;33;20078;-72
2022/10/13 22:21:42;;;;;;;22.08;15.10;;;17.60;78.20;;;;;;10787554;33;20431;-72
2022/10/13 22:27:45;;;;;;;20.00;12.65;;;17.60;78.30;;;;;;10790809;33;20024;-72
2022/10/13 22:33:47;;;;;;;15.30;11.38;;;17.50;78.20;;;;;;10791217;33;20059;-72
2022/10/13 22:39:49;;;;;;;16.35;12.55;;;17.60;78.20;;;;;;10791268;33;20020;-72
2022/10/13 22:45:51;;;;;;;17.37;12.05;;;17.50;78.20;;;;;;10790995;33;20306;-72
2022/10/13 22:51:53;;;;;;;19.30;14.45;;;17.40;78.30;;;;;;10790701;33;20322;-72
2022/10/13 22:57:55;;;;;;;17.67;13.00;;;17.50;78.60;;;;;;10790708;33;20047;-72
2022/10/13 23:03:58;;;;;;;26.17;15.95;;;17.50;79.10;;;;;;10790457;33;20063;-72
2022/10/13 23:10:00;;;;;;;17.85;14.35;;;17.50;79.10;;;;;;10787252;33;20047;-72
2022/10/13 23:16:17;;;;;;;18.77;15.05;;;17.40;79.00;;;;;;10786133;33;20050;-72
2022/10/13 23:22:22;;;;;;;24.98;20.27;;;17.30;79.20;;;;;;10789870;33;20040;-72
2022/10/13 23:28:24;;;;;;;22.30;17.05;;;17.30;79.60;;;;;;10788878;33;20047;-72
2022/10/13 23:34:28;;;;;;;21.30;17.62;;;17.20;80.00;;;;;;10786045;33;20325;-72
2022/10/13 23:40:29;;;;;;;24.23;15.70;;;17.20;79.90;;;;;;10789413;33;20035;-72
2022/10/13 23:46:31;;;;;;;23.45;14.87;;;17.20;79.90;;;;;;10789389;33;20117;-72
2022/10/13 23:52:33;;;;;;;19.02;12.35;;;17.20;80.00;;;;;;10786542;33;20021;-72
2022/10/13 23:59:01;;;;;;;23.12;16.83;;;17.20;80.10;;;;;;10784909;33;20054;-72
